This is the latest recevied weather packets stored in our database for station/object OK4ZAW-16. If no packets are shown the sender has not sent any weather packets the latest 10 day(s).
| Time | Temp. | Humidity | Pressure | Rain* | Wind** | Luminosity | Snow |
|---|---|---|---|---|---|---|---|
| 1777825027 | 16.11° C | 42% | 1018 hPa | - | - | 150 W/m² | - |
| 1777824610 | 16.67° C | 41% | 1018 hPa | - | - | 150 W/m² | - |
| 1777824193 | 17.22° C | 40% | 1018 hPa | - | - | 150 W/m² | - |
| 1777823775 | 17.22° C | 39% | 1018 hPa | - | - | 150 W/m² | - |
| 1777823358 | 17.22° C | 40% | 1017.9 hPa | - | - | 150 W/m² | - |
| 1777822940 | 17.22° C | 39% | 1018 hPa | - | - | 150 W/m² | - |
| 1777822523 | 17.78° C | 37% | 1018.1 hPa | - | - | 150 W/m² | - |
| 1777822105 | 18.33° C | 37% | 1018.2 hPa | - | - | 150 W/m² | - |
| 1777821688 | 18.89° C | 37% | 1018.2 hPa | - | - | 150 W/m² | - |
| 1777821270 | 18.89° C | 37% | 1018.2 hPa | - | - | 150 W/m² | - |
| 1777820852 | 18.33° C | 37% | 1018.3 hPa | - | - | 150 W/m² | - |
| 1777820434 | 18.33° C | 38% | 1018.3 hPa | - | - | 150 W/m² | - |
| 1777820016 | 18.89° C | 36% | 1018.4 hPa | - | - | 150 W/m² | - |
| 1777819598 | 20.56° C | 35% | 1018.5 hPa | - | - | 150 W/m² | - |
| 1777819181 | 20.56° C | 34% | 1018.5 hPa | - | - | 150 W/m² | - |
| 1777818763 | 20.56° C | 34% | 1018.6 hPa | - | - | 150 W/m² | - |
| 1777818345 | 21.11° C | 33% | 1018.7 hPa | - | - | 150 W/m² | - |
| 1777817927 | 20.56° C | 35% | 1018.6 hPa | - | - | 150 W/m² | - |
| 1777817509 | 20.56° C | 35% | 1018.7 hPa | - | - | 150 W/m² | - |
| 1777817091 | 20.56° C | 36% | 1018.9 hPa | - | - | 150 W/m² | - |
| 1777816674 | 20° C | 37% | 1018.9 hPa | - | - | 150 W/m² | - |
| 1777816256 | 20° C | 36% | 1019 hPa | - | - | 150 W/m² | - |
| 1777815838 | 19.44° C | 40% | 1019 hPa | - | - | 150 W/m² | - |
| 1777815421 | 19.44° C | 39% | 1019.1 hPa | - | - | 150 W/m² | - |
| 1777814586 | 17.78° C | 43% | 1019.1 hPa | - | - | 150 W/m² | - |
* Rain since midnight (hover to see other rain measurements)
** Current wind speed in m/s (hover to see current wind gust speed)